createdAt,value
2023-03-30T00:01:18.246Z,93984.94
2023-03-30T00:03:47.540Z,93967.06
2023-03-30T00:06:23.614Z,93984.53
2023-03-30T00:08:57.422Z,93979.28
2023-03-30T00:11:26.875Z,93990.22
2023-03-30T00:13:55.622Z,93989.59
2023-03-30T00:16:23.578Z,93975.19
2023-03-30T00:18:51.752Z,93969.91
2023-03-30T00:21:21.055Z,93985.31
2023-03-30T00:23:50.553Z,93974.53
2023-03-30T00:26:18.596Z,93972.28
2023-03-30T00:28:46.928Z,93971.09
2023-03-30T00:31:14.925Z,93972.91
2023-03-30T00:33:46.831Z,93970.44
2023-03-30T00:36:16.650Z,93976.13
2023-03-30T00:38:47.865Z,93974.69
2023-03-30T00:41:16.476Z,93974.06
2023-03-30T00:44:04.889Z,93968.22
2023-03-30T00:46:33.350Z,93968.00
2023-03-30T00:49:08.944Z,93975.53
2023-03-30T00:51:40.688Z,93978.41
2023-03-30T00:54:16.998Z,93972.53
2023-03-30T00:56:45.710Z,93975.41
2023-03-30T00:59:14.421Z,93957.50
2023-03-30T01:01:42.620Z,93968.28
2023-03-30T01:04:13.483Z,93970.53
2023-03-30T01:06:46.634Z,93961.38
2023-03-30T01:09:15.807Z,93961.16
2023-03-30T01:11:44.031Z,93967.47
2023-03-30T01:14:17.876Z,93957.53
2023-03-30T01:17:07.863Z,93963.63
2023-03-30T01:20:15.435Z,93965.22
2023-03-30T01:23:27.553Z,93965.19
2023-03-30T01:26:30.366Z,93968.28
2023-03-30T01:29:27.612Z,93963.03
2023-03-30T01:32:20.725Z,93967.91
2023-03-30T01:35:10.466Z,93968.94
2023-03-30T01:38:16.480Z,93972.38
2023-03-30T01:41:10.107Z,93985.78
2023-03-30T01:44:02.242Z,93978.47
2023-03-30T01:46:35.280Z,93972.56
2023-03-30T01:49:32.440Z,93938.28
2023-03-30T01:52:41.480Z,93983.75
2023-03-30T01:55:24.286Z,93987.44
2023-03-30T01:58:03.648Z,93981.91
2023-03-30T02:00:32.383Z,93969.94
2023-03-30T02:03:14.398Z,93987.41
2023-03-30T02:05:45.596Z,93978.06
2023-03-30T02:08:18.722Z,93984.75
2023-03-30T02:10:48.443Z,93982.28
2023-03-30T02:13:19.988Z,93983.09
2023-03-30T02:15:59.927Z,93976.56
2023-03-30T02:18:31.224Z,93983.28
2023-03-30T02:20:59.573Z,93982.69
2023-03-30T02:23:33.983Z,93982.50
2023-03-30T02:26:02.337Z,93992.69
2023-03-30T02:28:30.258Z,93987.81
2023-03-30T02:30:58.409Z,93991.88
2023-03-30T02:33:41.321Z,94004.69
2023-03-30T02:36:43.301Z,93994.50
2023-03-30T02:39:24.715Z,93995.94
2023-03-30T02:42:23.187Z,93990.47
2023-03-30T02:45:03.219Z,93988.22
2023-03-30T02:48:01.097Z,93987.22
2023-03-30T02:50:43.301Z,93989.63
2023-03-30T02:56:38.024Z,94001.25
2023-03-30T02:59:13.571Z,94000.03
2023-03-30T03:01:51.024Z,94006.16
2023-03-30T03:04:22.423Z,94005.31
2023-03-30T03:07:14.817Z,94008.16
2023-03-30T03:09:43.183Z,94008.16
2023-03-30T03:12:11.656Z,94008.56
2023-03-30T03:14:40.044Z,94003.47
2023-03-30T03:17:07.988Z,94012.81
2023-03-30T03:19:40.391Z,93999.78
2023-03-30T03:22:08.408Z,94000.63
2023-03-30T03:24:39.876Z,94003.44
2023-03-30T03:27:27.211Z,94004.06
2023-03-30T03:30:06.647Z,94011.19
2023-03-30T03:32:41.780Z,94006.13
2023-03-30T03:35:12.918Z,94011.19
2023-03-30T03:37:41.388Z,94009.16
2023-03-30T03:40:11.683Z,94021.78
2023-03-30T03:42:41.122Z,94021.78
2023-03-30T03:45:14.290Z,94015.28
2023-03-30T03:48:00.227Z,94019.53
2023-03-30T03:50:41.905Z,94029.50
2023-03-30T03:53:11.603Z,94030.09
2023-03-30T03:55:39.573Z,94034.38
2023-03-30T03:58:08.287Z,94031.94
2023-03-30T04:00:40.237Z,94040.88
2023-03-30T04:03:09.427Z,94028.06
2023-03-30T04:05:37.517Z,94044.13
2023-03-30T04:08:06.599Z,94040.69
2023-03-30T04:10:34.522Z,94041.91
2023-03-30T04:13:26.869Z,94048.59
2023-03-30T04:15:58.098Z,94048.22
2023-03-30T04:18:37.406Z,94042.72
2023-03-30T04:21:30.081Z,94045.16
2023-03-30T04:24:30.611Z,94048.59
2023-03-30T04:27:19.773Z,94039.25
2023-03-30T04:30:12.431Z,94046.56
2023-03-30T04:33:05.758Z,94040.06
2023-03-30T04:35:50.241Z,94045.53
2023-03-30T04:38:43.108Z,94047.75
2023-03-30T04:41:16.690Z,94054.06
2023-03-30T04:43:44.978Z,94057.75
2023-03-30T04:46:48.509Z,94052.84
2023-03-30T04:49:36.439Z,94051.03
2023-03-30T04:52:23.676Z,94060.81
2023-03-30T04:55:00.253Z,94060.59
2023-03-30T04:57:47.181Z,94063.84
2023-03-30T05:00:33.984Z,94069.53
2023-03-30T05:03:23.258Z,94057.53
2023-03-30T05:06:11.536Z,94071.78
2023-03-30T05:09:14.814Z,94059.53
2023-03-30T05:12:04.912Z,94061.19
2023-03-30T05:14:54.365Z,94062.38
2023-03-30T05:17:34.434Z,94072.13
2023-03-30T05:20:22.924Z,94057.66
2023-03-30T05:23:26.198Z,94062.13
2023-03-30T05:26:17.390Z,94060.09
2023-03-30T05:29:04.107Z,94069.41
2023-03-30T05:31:38.986Z,94062.28
2023-03-30T05:34:12.662Z,94070.88
2023-03-30T05:37:02.401Z,94065.78
2023-03-30T05:39:36.478Z,94060.69
2023-03-30T05:42:05.857Z,94063.13
2023-03-30T05:44:51.815Z,94068.59
2023-03-30T05:47:46.122Z,94062.09
2023-03-30T05:50:32.474Z,94060.81
2023-03-30T05:53:04.108Z,94060.94
2023-03-30T05:56:02.491Z,94057.44
2023-03-30T05:58:50.125Z,94065.97
2023-03-30T06:01:37.928Z,94071.22
2023-03-30T06:04:06.513Z,94073.84
2023-03-30T06:06:37.250Z,94084.19
2023-03-30T06:09:05.753Z,94082.75
2023-03-30T06:11:35.460Z,94085.78
2023-03-30T06:14:25.207Z,94075.84
2023-03-30T06:17:22.247Z,94085.53
2023-03-30T06:19:50.785Z,94076.59
2023-03-30T06:22:18.919Z,94083.41
2023-03-30T06:25:09.059Z,94086.78
2023-03-30T06:27:37.605Z,94087.16
2023-03-30T06:30:06.764Z,94093.84
2023-03-30T06:32:35.177Z,94099.78
2023-03-30T06:35:46.509Z,94101.25
2023-03-30T06:38:16.573Z,94108.97
2023-03-30T06:40:45.894Z,94107.22
2023-03-30T06:43:24.407Z,94106.69
2023-03-30T06:46:21.759Z,94107.44
2023-03-30T06:48:52.387Z,94113.59
2023-03-30T06:51:35.589Z,94115.56
2023-03-30T06:54:08.651Z,94115.31
2023-03-30T06:56:39.432Z,94120.91
2023-03-30T06:59:14.323Z,94114.44
2023-03-30T07:02:03.840Z,94112.38
2023-03-30T07:04:52.157Z,94117.13
2023-03-30T07:07:26.361Z,94123.75
2023-03-30T07:09:54.235Z,94121.84
2023-03-30T07:12:23.808Z,94130.66
2023-03-30T07:14:52.380Z,94128.75
2023-03-30T07:17:23.063Z,94125.38
2023-03-30T07:19:53.157Z,94124.50
2023-03-30T07:22:21.820Z,94122.44
2023-03-30T07:24:50.031Z,94124.53
2023-03-30T07:27:18.088Z,94119.66
2023-03-30T07:29:47.780Z,94118.31
2023-03-30T07:32:17.266Z,94117.59
2023-03-30T07:34:46.337Z,94125.50
2023-03-30T07:37:20.670Z,94128.16
2023-03-30T07:39:49.980Z,94116.59
2023-03-30T07:42:18.160Z,94121.91
2023-03-30T07:44:46.330Z,94126.38
2023-03-30T07:47:18.143Z,94123.41
2023-03-30T07:49:46.280Z,94125.47
2023-03-30T07:52:14.405Z,94124.47
2023-03-30T07:54:50.009Z,94126.16
2023-03-30T07:57:22.439Z,94122.13
2023-03-30T07:59:50.999Z,94105.91
2023-03-30T08:02:30.264Z,94119.56
2023-03-30T08:04:58.501Z,94106.56
2023-03-30T08:07:35.769Z,94108.06
2023-03-30T08:10:17.386Z,94104.28
2023-03-30T08:12:46.129Z,94095.53
2023-03-30T08:15:14.066Z,94094.66
2023-03-30T08:17:42.149Z,94098.53
2023-03-30T08:20:11.850Z,94097.13
2023-03-30T08:22:40.118Z,94095.28
2023-03-30T08:25:09.544Z,94087.94
2023-03-30T08:27:37.502Z,94095.63
2023-03-30T08:30:06.243Z,94099.44
2023-03-30T08:32:34.259Z,94093.75
2023-03-30T08:35:02.970Z,94097.41
2023-03-30T08:37:31.553Z,94094.97
2023-03-30T08:39:59.541Z,94083.19
2023-03-30T08:42:53.002Z,94082.50
2023-03-30T08:45:21.247Z,94075.16
2023-03-30T08:47:51.888Z,94077.53
2023-03-30T08:50:36.720Z,94084.19
2023-03-30T08:53:08.039Z,94072.28
2023-03-30T08:55:43.452Z,94072.22
2023-03-30T08:58:32.712Z,94069.13
2023-03-30T09:01:05.730Z,94068.19
2023-03-30T09:04:11.428Z,94064.41
2023-03-30T09:07:07.889Z,94067.03
2023-03-30T09:09:44.771Z,94064.84
2023-03-30T09:12:34.581Z,94057.66
2023-03-30T09:15:08.856Z,94056.69
2023-03-30T09:17:51.537Z,94050.22
2023-03-30T09:20:25.774Z,94047.88
2023-03-30T09:22:56.201Z,94044.75
2023-03-30T09:25:42.754Z,94045.97
2023-03-30T09:28:27.611Z,94039.16
2023-03-30T09:31:03.603Z,94037.53
2023-03-30T09:33:44.370Z,94035.66
2023-03-30T09:36:18.296Z,94033.53
2023-03-30T09:38:46.636Z,94039.38
2023-03-30T09:41:29.588Z,94040.66
2023-03-30T09:43:59.913Z,94033.16
2023-03-30T09:46:28.496Z,94034.97
2023-03-30T09:49:14.499Z,94031.25
2023-03-30T09:52:22.420Z,94024.72
2023-03-30T09:54:50.613Z,94020.31
2023-03-30T09:57:30.237Z,94024.66
2023-03-30T10:00:00.900Z,94015.59
2023-03-30T10:02:31.631Z,94000.16
2023-03-30T10:05:02.642Z,94008.59
2023-03-30T10:07:40.027Z,94008.06
2023-03-30T10:10:31.564Z,94001.97
2023-03-30T10:13:05.141Z,93998.19
2023-03-30T10:15:38.058Z,93999.59
2023-03-30T10:18:31.577Z,93998.38
2023-03-30T10:21:06.745Z,93999.47
2023-03-30T10:23:42.111Z,94000.25
2023-03-30T10:26:20.852Z,93997.53
2023-03-30T10:28:54.524Z,94000.81
2023-03-30T10:31:28.328Z,93995.53
2023-03-30T10:33:59.797Z,93996.38
2023-03-30T10:36:35.378Z,93996.31
2023-03-30T10:39:30.655Z,93999.59
2023-03-30T10:42:05.801Z,93984.19
2023-03-30T10:44:36.040Z,93977.84
2023-03-30T10:47:37.802Z,93975.19
2023-03-30T10:50:41.301Z,93967.00
2023-03-30T10:53:14.942Z,93979.00
2023-03-30T10:55:51.545Z,93972.63
2023-03-30T10:58:19.781Z,93970.63
2023-03-30T11:00:58.623Z,93967.41
2023-03-30T11:03:29.649Z,93978.16
2023-03-30T11:06:09.413Z,93973.09
2023-03-30T11:08:44.759Z,93967.16
2023-03-30T11:11:20.701Z,93958.31
2023-03-30T11:14:02.784Z,93950.25
2023-03-30T11:16:52.838Z,93954.53
2023-03-30T11:19:26.428Z,93944.63
2023-03-30T11:22:19.019Z,93938.72
2023-03-30T11:24:51.492Z,93936.28
2023-03-30T11:27:43.956Z,93901.94
2023-03-30T11:30:20.868Z,93932.53
2023-03-30T11:33:39.988Z,93927.97
2023-03-30T11:36:40.308Z,93923.97
2023-03-30T11:39:28.818Z,93931.75
2023-03-30T11:42:31.679Z,93917.25
2023-03-30T11:45:02.590Z,93922.34
2023-03-30T11:47:40.024Z,93925.53
2023-03-30T11:50:36.395Z,93923.16
2023-03-30T11:53:24.584Z,93912.41
2023-03-30T11:55:59.471Z,93914.22
2023-03-30T11:58:31.059Z,93870.84
2023-03-30T12:01:20.846Z,93894.53
2023-03-30T12:03:54.959Z,93898.47
2023-03-30T12:06:42.435Z,93899.06
2023-03-30T12:09:28.197Z,93893.91
2023-03-30T12:12:20.313Z,93886.25
2023-03-30T12:15:18.176Z,93882.91
2023-03-30T12:17:59.177Z,93881.03
2023-03-30T12:20:42.354Z,93871.41
2023-03-30T12:23:39.602Z,93874.88
2023-03-30T12:26:27.242Z,93868.69
2023-03-30T12:29:35.931Z,93862.19
2023-03-30T12:32:03.724Z,93860.34
2023-03-30T12:34:37.639Z,93867.03
2023-03-30T12:37:13.369Z,93854.72
2023-03-30T12:39:50.539Z,93854.84
2023-03-30T12:42:35.709Z,93852.50
2023-03-30T12:45:15.503Z,93844.81
2023-03-30T12:48:11.167Z,93838.47
2023-03-30T12:50:45.286Z,93839.19
2023-03-30T12:53:22.358Z,93822.94
2023-03-30T12:56:02.907Z,93823.75
2023-03-30T12:58:52.899Z,93816.66
2023-03-30T13:01:38.243Z,93820.44
2023-03-30T13:04:12.210Z,93817.03
2023-03-30T13:06:53.456Z,93822.56
2023-03-30T13:09:23.484Z,93815.34
2023-03-30T13:11:56.858Z,93805.94
2023-03-30T13:14:30.626Z,93808.84
2023-03-30T13:16:59.093Z,93809.94
2023-03-30T13:19:33.218Z,93799.06
2023-03-30T13:22:13.454Z,93786.78
2023-03-30T13:24:54.331Z,93781.75
2023-03-30T13:27:31.325Z,93775.88
2023-03-30T13:30:12.909Z,93777.69
2023-03-30T13:33:11.846Z,93773.75
2023-03-30T13:35:57.491Z,93763.88
2023-03-30T13:38:56.528Z,93775.22
2023-03-30T13:41:49.764Z,93765.28
2023-03-30T13:44:36.325Z,93761.06
2023-03-30T13:47:19.076Z,93761.03
2023-03-30T13:49:55.364Z,93761.22
2023-03-30T13:52:31.352Z,93761.84
2023-03-30T13:55:00.986Z,93764.53
2023-03-30T13:57:37.329Z,93758.91
2023-03-30T14:00:22.959Z,93754.59
2023-03-30T14:02:51.057Z,93763.16
2023-03-30T14:05:23.492Z,93751.03
2023-03-30T14:07:58.127Z,93751.91
2023-03-30T14:10:27.546Z,93753.78
2023-03-30T14:12:57.533Z,93755.13
2023-03-30T14:15:35.316Z,93750.56
2023-03-30T14:18:05.672Z,93740.09
2023-03-30T14:20:50.288Z,93741.47
2023-03-30T14:23:29.963Z,93732.34
2023-03-30T14:26:01.037Z,93739.34
2023-03-30T14:28:34.255Z,93747.38
2023-03-30T14:31:11.577Z,93743.31
2023-03-30T14:33:41.219Z,93742.22
2023-03-30T14:36:12.368Z,93738.53
2023-03-30T14:38:48.142Z,93743.94
2023-03-30T14:41:23.143Z,93739.09
2023-03-30T14:43:56.542Z,93728.34
2023-03-30T14:46:28.981Z,93728.34
2023-03-30T14:48:58.522Z,93718.41
2023-03-30T14:51:37.632Z,93726.75
2023-03-30T14:54:07.564Z,93722.72
2023-03-30T14:56:36.811Z,93725.13
2023-03-30T14:59:07.258Z,93728.59
2023-03-30T15:01:36.264Z,93725.66
2023-03-30T15:04:16.726Z,93721.38
2023-03-30T15:06:48.796Z,93715.22
2023-03-30T15:09:20.118Z,93721.38
2023-03-30T15:11:53.149Z,93718.72
2023-03-30T15:14:23.386Z,93711.72
2023-03-30T15:16:54.029Z,93710.13
2023-03-30T15:19:34.183Z,93705.56
2023-03-30T15:22:08.233Z,93704.22
2023-03-30T15:24:38.363Z,93705.81
2023-03-30T15:27:12.107Z,93704.75
2023-03-30T15:29:41.863Z,93700.47
2023-03-30T15:32:41.999Z,93697.78
2023-03-30T15:35:16.737Z,93694.84
2023-03-30T15:38:00.052Z,93692.44
2023-03-30T15:40:50.325Z,93680.34
2023-03-30T15:43:38.743Z,93700.72
2023-03-30T15:46:13.828Z,93695.88
2023-03-30T15:48:45.911Z,93690.28
2023-03-30T15:51:29.520Z,93686.78
2023-03-30T15:54:18.498Z,93687.56
2023-03-30T15:56:55.563Z,93683.00
2023-03-30T15:59:29.824Z,93670.88
2023-03-30T16:02:04.275Z,93670.56
2023-03-30T16:04:33.033Z,93670.19
2023-03-30T16:07:02.324Z,93669.66
2023-03-30T16:09:30.668Z,93671.25
2023-03-30T16:11:58.968Z,93666.59
2023-03-30T16:14:26.925Z,93664.44
2023-03-30T16:16:55.192Z,93668.66
2023-03-30T16:19:26.611Z,93678.47
2023-03-30T16:21:54.977Z,93677.31
2023-03-30T16:24:23.812Z,93678.09
2023-03-30T16:26:52.856Z,93676.75
2023-03-30T16:29:23.645Z,93681.91
2023-03-30T16:31:54.028Z,93681.03
2023-03-30T16:34:22.717Z,93688.50
2023-03-30T16:36:51.571Z,93689.63
2023-03-30T16:39:23.344Z,93691.94
2023-03-30T16:41:53.016Z,93688.16
2023-03-30T16:44:25.517Z,93691.59
2023-03-30T16:46:56.805Z,93691.59
2023-03-30T16:49:26.385Z,93687.25
2023-03-30T16:51:57.868Z,93688.38
2023-03-30T16:54:32.518Z,93697.16
2023-03-30T16:57:02.270Z,93691.69
2023-03-30T16:59:32.304Z,93702.41
2023-03-30T17:02:00.965Z,93698.94
2023-03-30T17:04:29.468Z,93700.69
2023-03-30T17:06:58.016Z,93704.88
2023-03-30T17:09:27.662Z,93706.25
2023-03-30T17:11:56.202Z,93711.81
2023-03-30T17:14:24.866Z,93703.50
2023-03-30T17:16:53.595Z,93708.91
2023-03-30T17:19:22.226Z,93703.25
2023-03-30T17:21:50.576Z,93713.84
2023-03-30T17:24:19.078Z,93713.63
2023-03-30T17:26:47.957Z,93721.69
2023-03-30T17:29:16.409Z,93724.19
2023-03-30T17:31:46.174Z,93730.03
2023-03-30T17:34:15.322Z,93720.22
2023-03-30T17:36:43.747Z,93720.22
2023-03-30T17:39:15.130Z,93723.56
2023-03-30T17:41:43.668Z,93720.66
2023-03-30T17:44:12.429Z,93716.84
2023-03-30T17:46:43.492Z,93723.78
2023-03-30T17:49:17.664Z,93720.16
2023-03-30T17:51:46.409Z,93714.47
2023-03-30T17:54:15.276Z,93719.09
2023-03-30T17:56:43.523Z,93708.91
2023-03-30T17:59:12.637Z,93711.53
2023-03-30T18:01:41.561Z,93711.19
2023-03-30T18:04:10.282Z,93710.16
2023-03-30T18:06:38.873Z,93701.81
2023-03-30T18:09:17.432Z,93704.41
2023-03-30T18:11:46.179Z,93696.00
2023-03-30T18:14:14.722Z,93704.09
2023-03-30T18:16:44.017Z,93700.28
2023-03-30T18:19:12.925Z,93707.31
2023-03-30T18:21:41.858Z,93696.97
2023-03-30T18:24:10.256Z,93688.25
2023-03-30T18:26:41.358Z,93699.72
2023-03-30T18:29:20.544Z,93690.38
2023-03-30T18:31:49.732Z,93690.44
2023-03-30T18:34:19.986Z,93691.19
2023-03-30T18:36:48.673Z,93688.84
2023-03-30T18:39:20.261Z,93686.47
2023-03-30T18:41:49.633Z,93690.56
2023-03-30T18:44:18.262Z,93688.31
2023-03-30T18:46:51.445Z,93683.09
2023-03-30T18:49:22.874Z,93673.59
2023-03-30T18:51:52.214Z,93687.72
2023-03-30T18:54:20.467Z,93681.88
2023-03-30T18:56:50.082Z,93683.59
2023-03-30T18:59:22.681Z,93678.69
2023-03-30T19:01:51.701Z,93686.97
2023-03-30T19:04:20.282Z,93675.47
2023-03-30T19:06:49.068Z,93692.25
2023-03-30T19:09:18.029Z,93687.53
2023-03-30T19:11:46.470Z,93679.22
2023-03-30T19:14:15.143Z,93676.44
2023-03-30T19:16:43.607Z,93681.59
2023-03-30T19:19:15.516Z,93677.66
2023-03-30T19:21:46.732Z,93667.78
2023-03-30T19:24:15.114Z,93669.91
2023-03-30T19:26:43.632Z,93670.94
2023-03-30T19:29:13.342Z,93658.03
2023-03-30T19:31:41.992Z,93661.03
2023-03-30T19:34:10.664Z,93662.94
2023-03-30T19:36:38.849Z,93659.81
2023-03-30T19:39:06.757Z,93655.84
2023-03-30T19:41:35.028Z,93650.44
2023-03-30T19:44:03.216Z,93645.84
2023-03-30T19:46:31.299Z,93638.28
2023-03-30T19:49:00.030Z,93654.41
2023-03-30T19:51:28.517Z,93648.53
2023-03-30T19:53:59.959Z,93638.13
2023-03-30T19:56:28.574Z,93647.06
2023-03-30T19:58:56.592Z,93642.53
2023-03-30T20:01:25.379Z,93638.94
2023-03-30T20:03:53.790Z,93626.00
2023-03-30T20:06:22.248Z,93639.28
2023-03-30T20:08:50.644Z,93625.81
2023-03-30T20:11:18.988Z,93635.31
2023-03-30T20:13:48.310Z,93624.91
2023-03-30T20:16:21.511Z,93628.84
2023-03-30T20:18:52.406Z,93620.25
2023-03-30T20:21:23.488Z,93638.00
2023-03-30T20:23:51.816Z,93627.19
2023-03-30T20:26:19.826Z,93623.88
2023-03-30T20:28:49.166Z,93625.16
2023-03-30T20:31:17.964Z,93632.69
2023-03-30T20:33:46.479Z,93624.28
2023-03-30T20:36:14.890Z,93629.69
2023-03-30T20:38:46.225Z,93623.81
2023-03-30T20:41:15.504Z,93622.09
2023-03-30T20:43:56.429Z,93605.63
2023-03-30T20:46:26.295Z,93620.59
2023-03-30T20:49:02.331Z,93616.22
2023-03-30T20:51:30.336Z,93595.72
2023-03-30T20:53:58.575Z,93611.78
2023-03-30T20:56:28.240Z,93611.34
2023-03-30T20:58:56.637Z,93601.28
2023-03-30T21:01:29.491Z,93606.06
2023-03-30T21:04:00.064Z,93611.06
2023-03-30T21:06:30.313Z,93602.38
2023-03-30T21:09:01.154Z,93593.09
2023-03-30T21:11:32.082Z,93590.97
2023-03-30T21:14:01.684Z,93608.53
2023-03-30T21:16:29.685Z,93600.13
2023-03-30T21:18:57.953Z,93603.41
2023-03-30T21:21:27.317Z,93594.22
2023-03-30T21:23:55.208Z,93580.63
2023-03-30T21:26:23.447Z,93589.19
2023-03-30T21:28:51.413Z,93590.03
2023-03-30T21:31:19.383Z,93581.00
2023-03-30T21:33:47.643Z,93582.00
2023-03-30T21:36:15.709Z,93586.03
2023-03-30T21:38:43.565Z,93581.69
2023-03-30T21:41:16.216Z,93585.56
2023-03-30T21:43:47.560Z,93571.06
2023-03-30T21:46:18.282Z,93587.09
2023-03-30T21:48:47.535Z,93582.19
2023-03-30T21:51:30.052Z,93579.31
2023-03-30T21:53:58.769Z,93565.09
2023-03-30T21:56:29.569Z,93570.66
2023-03-30T21:58:59.062Z,93564.16
2023-03-30T22:01:27.818Z,93566.28
2023-03-30T22:03:56.613Z,93569.00
2023-03-30T22:06:24.791Z,93565.06
2023-03-30T22:08:52.835Z,93567.72
2023-03-30T22:11:24.262Z,93555.94
2023-03-30T22:13:55.469Z,93560.13
2023-03-30T22:16:28.524Z,93557.22
2023-03-30T22:18:56.999Z,93556.88
2023-03-30T22:21:34.487Z,93552.34
2023-03-30T22:24:13.881Z,93554.09
2023-03-30T22:26:41.886Z,93559.41
2023-03-30T22:29:10.472Z,93560.34
2023-03-30T22:31:38.748Z,93552.53
2023-03-30T22:34:07.474Z,93543.09
2023-03-30T22:36:35.860Z,93551.84
2023-03-30T22:39:04.598Z,93545.31
2023-03-30T22:41:32.690Z,93549.25
2023-03-30T22:44:00.743Z,93544.53
2023-03-30T22:46:28.749Z,93546.16
2023-03-30T22:48:56.647Z,93534.97
2023-03-30T22:51:28.511Z,93539.25
2023-03-30T22:53:58.843Z,93535.91
2023-03-30T22:56:29.019Z,93532.22
2023-03-30T22:58:57.379Z,93541.31
2023-03-30T23:01:26.091Z,93539.50
2023-03-30T23:03:54.656Z,93541.91
2023-03-30T23:06:22.615Z,93543.16
2023-03-30T23:08:51.912Z,93534.75
2023-03-30T23:11:21.838Z,93545.47
2023-03-30T23:13:50.255Z,93545.94
2023-03-30T23:16:18.182Z,93541.66
2023-03-30T23:18:46.156Z,93527.03
2023-03-30T23:21:14.252Z,93537.72
2023-03-30T23:23:42.693Z,93531.72
2023-03-30T23:26:11.470Z,93531.03
2023-03-30T23:28:42.040Z,93532.97
2023-03-30T23:31:16.835Z,93529.06
2023-03-30T23:33:45.670Z,93533.41
2023-03-30T23:36:14.522Z,93532.50
2023-03-30T23:38:43.481Z,93530.84
2023-03-30T23:41:14.672Z,93530.84
2023-03-30T23:43:42.983Z,93531.59
2023-03-30T23:46:11.396Z,93527.88
2023-03-30T23:48:40.686Z,93535.75
2023-03-30T23:51:08.934Z,93534.91
2023-03-30T23:53:40.522Z,93530.09
2023-03-30T23:56:13.294Z,93530.50
2023-03-30T23:58:41.798Z,93526.25
